createdAt,value
2022-12-18T00:01:07.151Z,-4.14
2022-12-18T00:03:35.024Z,-4.14
2022-12-18T00:06:01.676Z,-4.15
2022-12-18T00:08:29.170Z,-4.17
2022-12-18T00:10:55.748Z,-4.18
2022-12-18T00:13:26.244Z,-4.19
2022-12-18T00:15:54.515Z,-4.17
2022-12-18T00:18:23.239Z,-4.18
2022-12-18T00:20:49.645Z,-4.21
2022-12-18T00:23:16.073Z,-4.19
2022-12-18T00:25:42.492Z,-4.17
2022-12-18T00:28:08.913Z,-4.18
2022-12-18T00:30:35.391Z,-4.16
2022-12-18T00:33:01.861Z,-4.16
2022-12-18T00:35:28.514Z,-4.17
2022-12-18T00:37:55.025Z,-4.18
2022-12-18T00:40:21.451Z,-4.17
2022-12-18T00:42:56.850Z,-4.18
2022-12-18T00:45:29.026Z,-4.13
2022-12-18T00:47:56.623Z,-4.12
2022-12-18T00:50:24.805Z,-4.12
2022-12-18T00:52:51.406Z,-4.12
2022-12-18T00:55:18.797Z,-4.11
2022-12-18T00:57:45.226Z,-4.05
2022-12-18T01:00:15.210Z,-4.03
2022-12-18T01:02:41.957Z,-4.03
2022-12-18T01:05:10.937Z,-4.02
2022-12-18T01:07:37.561Z,-4.00
2022-12-18T01:10:05.224Z,-4.00
2022-12-18T01:12:32.162Z,-4.00
2022-12-18T01:14:58.723Z,-4.02
2022-12-18T01:17:25.389Z,-4.05
2022-12-18T01:19:51.829Z,-4.08
2022-12-18T01:22:18.279Z,-4.11
2022-12-18T01:24:44.714Z,-4.10
2022-12-18T01:27:11.324Z,-4.10
2022-12-18T01:29:37.760Z,-4.10
2022-12-18T01:32:04.502Z,-4.13
2022-12-18T01:34:30.957Z,-4.12
2022-12-18T01:36:57.493Z,-4.14
2022-12-18T01:39:23.948Z,-4.16
2022-12-18T01:42:02.390Z,-4.16
2022-12-18T01:45:06.541Z,-4.15
2022-12-18T01:47:45.771Z,-4.13
2022-12-18T01:50:17.709Z,-4.10
2022-12-18T01:52:48.348Z,-4.06
2022-12-18T01:55:19.114Z,-4.01
2022-12-18T01:57:45.980Z,-3.99
2022-12-18T02:00:20.214Z,-3.95
2022-12-18T02:02:48.432Z,-3.90
2022-12-18T02:05:24.617Z,-3.87
2022-12-18T02:08:05.207Z,-3.87
2022-12-18T02:10:37.964Z,-3.83
2022-12-18T02:13:33.186Z,-3.84
2022-12-18T02:16:24.606Z,-3.80
2022-12-18T02:19:01.528Z,-3.80
2022-12-18T02:21:45.438Z,-3.79
2022-12-18T02:24:36.140Z,-3.81
2022-12-18T02:27:08.508Z,-3.80
2022-12-18T02:29:58.873Z,-3.79
2022-12-18T02:32:33.824Z,-3.79
2022-12-18T02:35:02.067Z,-3.80
2022-12-18T02:37:30.576Z,-3.82
2022-12-18T02:39:59.299Z,-3.84
2022-12-18T02:42:27.011Z,-3.88
2022-12-18T02:44:53.428Z,-3.88
2022-12-18T02:47:23.912Z,-3.87
2022-12-18T02:50:06.378Z,-3.87
2022-12-18T02:52:45.265Z,-3.88
2022-12-18T02:55:46.869Z,-3.86
2022-12-18T02:58:16.856Z,-3.83
2022-12-18T03:00:53.499Z,-3.86
2022-12-18T03:03:31.103Z,-3.83
2022-12-18T03:06:11.726Z,-3.85
2022-12-18T03:08:46.177Z,-3.84
2022-12-18T03:11:14.738Z,-3.86
2022-12-18T03:13:43.877Z,-3.83
2022-12-18T03:16:15.100Z,-3.84
2022-12-18T03:19:15.566Z,-3.82
2022-12-18T03:21:50.164Z,-3.79
2022-12-18T03:24:19.825Z,-3.80
2022-12-18T03:26:48.828Z,-3.81
2022-12-18T03:29:22.450Z,-3.83
2022-12-18T03:31:55.286Z,-3.85
2022-12-18T03:34:30.913Z,-3.88
2022-12-18T03:36:57.481Z,-3.89
2022-12-18T03:39:24.444Z,-3.90
2022-12-18T03:42:05.958Z,-3.93
2022-12-18T03:44:44.390Z,-3.94
2022-12-18T03:47:20.554Z,-3.97
2022-12-18T03:49:59.841Z,-3.99
2022-12-18T03:52:45.614Z,-4.02
2022-12-18T03:55:13.123Z,-4.04
2022-12-18T03:57:40.461Z,-4.05
2022-12-18T04:00:11.465Z,-4.07
2022-12-18T04:02:42.043Z,-4.08
2022-12-18T04:05:10.662Z,-4.11
2022-12-18T04:07:39.271Z,-4.10
2022-12-18T04:10:08.624Z,-4.13
2022-12-18T04:12:35.092Z,-4.13
2022-12-18T04:15:01.624Z,-4.14
2022-12-18T04:17:28.140Z,-4.15
2022-12-18T04:19:54.566Z,-4.18
2022-12-18T04:22:21.025Z,-4.19
2022-12-18T04:24:47.435Z,-4.19
2022-12-18T04:27:13.950Z,-4.22
2022-12-18T04:29:40.600Z,-4.21
2022-12-18T04:32:07.047Z,-4.22
2022-12-18T04:34:33.528Z,-4.22
2022-12-18T04:36:59.952Z,-4.23
2022-12-18T04:39:26.488Z,-4.22
2022-12-18T04:41:53.090Z,-4.24
2022-12-18T04:44:19.488Z,-4.27
2022-12-18T04:46:45.977Z,-4.28
2022-12-18T04:49:12.558Z,-4.30
2022-12-18T04:51:39.502Z,-4.29
2022-12-18T04:54:05.998Z,-4.29
2022-12-18T04:56:33.061Z,-4.29
2022-12-18T04:58:59.627Z,-4.29
2022-12-18T05:01:31.006Z,-4.27
2022-12-18T05:04:01.023Z,-4.27
2022-12-18T05:06:27.521Z,-4.28
2022-12-18T05:08:53.913Z,-4.27
2022-12-18T05:11:20.380Z,-4.27
2022-12-18T05:13:46.861Z,-4.28
2022-12-18T05:16:14.253Z,-4.28
2022-12-18T05:18:41.251Z,-4.30
2022-12-18T05:21:07.839Z,-4.32
2022-12-18T05:23:34.213Z,-4.35
2022-12-18T05:26:03.223Z,-4.36
2022-12-18T05:28:32.013Z,-4.34
2022-12-18T05:31:01.615Z,-4.35
2022-12-18T05:33:31.431Z,-4.38
2022-12-18T05:36:02.773Z,-4.40
2022-12-18T05:38:31.297Z,-4.41
2022-12-18T05:40:58.401Z,-4.39
2022-12-18T05:43:26.728Z,-4.39
2022-12-18T05:45:53.839Z,-4.38
2022-12-18T05:48:21.412Z,-4.36
2022-12-18T05:50:49.421Z,-4.35
2022-12-18T05:53:18.590Z,-4.35
2022-12-18T05:55:45.488Z,-4.34
2022-12-18T05:58:13.693Z,-4.32
2022-12-18T06:00:42.794Z,-4.30
2022-12-18T06:03:10.459Z,-4.27
2022-12-18T06:05:39.201Z,-4.27
2022-12-18T06:08:06.003Z,-4.25
2022-12-18T06:10:33.312Z,-4.23
2022-12-18T06:12:59.885Z,-4.23
2022-12-18T06:15:26.317Z,-4.25
2022-12-18T06:17:52.764Z,-4.28
2022-12-18T06:20:19.817Z,-4.30
2022-12-18T06:22:46.377Z,-4.32
2022-12-18T06:25:12.974Z,-4.33
2022-12-18T06:27:39.511Z,-4.35
2022-12-18T06:30:06.582Z,-4.37
2022-12-18T06:32:33.269Z,-4.42
2022-12-18T06:34:59.671Z,-4.51
2022-12-18T06:37:27.124Z,-4.54
2022-12-18T06:39:54.827Z,-4.51
2022-12-18T06:42:21.279Z,-4.47
2022-12-18T06:44:47.790Z,-4.44
2022-12-18T06:47:14.265Z,-4.46
2022-12-18T06:49:40.776Z,-4.48
2022-12-18T06:52:07.251Z,-4.55
2022-12-18T06:54:33.681Z,-4.57
2022-12-18T06:57:00.083Z,-4.62
2022-12-18T06:59:26.512Z,-4.60
2022-12-18T07:01:54.440Z,-4.60
2022-12-18T07:04:20.996Z,-4.63
2022-12-18T07:06:47.665Z,-4.62
2022-12-18T07:09:14.113Z,-4.65
2022-12-18T07:11:40.585Z,-4.66
2022-12-18T07:14:06.997Z,-4.66
2022-12-18T07:16:33.442Z,-4.70
2022-12-18T07:18:59.934Z,-4.71
2022-12-18T07:21:26.654Z,-4.72
2022-12-18T07:23:53.185Z,-4.72
2022-12-18T07:26:21.810Z,-4.72
2022-12-18T07:28:48.904Z,-4.72
2022-12-18T07:31:19.388Z,-4.76
2022-12-18T07:33:47.223Z,-4.80
2022-12-18T07:36:14.542Z,-4.81
2022-12-18T07:38:41.828Z,-4.83
2022-12-18T07:41:10.962Z,-4.84
2022-12-18T07:43:38.667Z,-4.81
2022-12-18T07:46:06.047Z,-4.83
2022-12-18T07:48:33.050Z,-4.81
2022-12-18T07:51:05.214Z,-4.75
2022-12-18T07:53:32.538Z,-4.75
2022-12-18T07:56:28.607Z,-4.75
2022-12-18T07:58:57.264Z,-4.80
2022-12-18T08:01:24.113Z,-4.78
2022-12-18T08:03:52.130Z,-4.76
2022-12-18T08:06:19.313Z,-4.75
2022-12-18T08:08:49.293Z,-4.73
2022-12-18T08:11:17.118Z,-4.74
2022-12-18T08:13:43.912Z,-4.70
2022-12-18T08:16:10.798Z,-4.67
2022-12-18T08:18:38.434Z,-4.65
2022-12-18T08:21:23.731Z,-4.64
2022-12-18T08:23:51.757Z,-4.57
2022-12-18T08:26:19.631Z,-4.53
2022-12-18T08:28:47.498Z,-4.50
2022-12-18T08:31:14.598Z,-4.50
2022-12-18T08:33:42.259Z,-4.47
2022-12-18T08:36:10.850Z,-4.44
2022-12-18T08:38:37.369Z,-4.40
2022-12-18T08:41:07.465Z,-4.36
2022-12-18T08:43:53.044Z,-4.31
2022-12-18T08:46:21.220Z,-4.23
2022-12-18T08:48:48.116Z,-4.17
2022-12-18T08:51:17.306Z,-4.14
2022-12-18T08:53:45.436Z,-4.04
2022-12-18T08:56:13.105Z,-3.96
2022-12-18T08:58:39.849Z,-3.90
2022-12-18T09:01:10.316Z,-3.84
2022-12-18T09:03:37.626Z,-3.80
2022-12-18T09:06:04.587Z,-3.74
2022-12-18T09:08:31.083Z,-3.68
2022-12-18T09:10:57.576Z,-3.61
2022-12-18T09:13:24.101Z,-3.58
2022-12-18T09:15:53.304Z,-3.54
2022-12-18T09:18:21.588Z,-3.47
2022-12-18T09:20:48.137Z,-3.41
2022-12-18T09:23:15.432Z,-3.34
2022-12-18T09:25:41.948Z,-3.26
2022-12-18T09:28:16.713Z,-3.21
2022-12-18T09:30:46.578Z,-3.12
2022-12-18T09:33:13.667Z,-3.06
2022-12-18T09:35:42.025Z,-3.03
2022-12-18T09:38:10.954Z,-2.97
2022-12-18T09:40:43.392Z,-2.97
2022-12-18T09:43:16.625Z,-2.97
2022-12-18T09:45:47.125Z,-2.91
2022-12-18T09:48:39.598Z,-2.81
2022-12-18T09:51:19.348Z,-2.72
2022-12-18T09:53:51.816Z,-2.67
2022-12-18T09:56:23.806Z,-2.57
2022-12-18T09:59:04.565Z,-2.46
2022-12-18T10:01:39.133Z,-2.33
2022-12-18T10:04:11.224Z,-2.25
2022-12-18T10:06:53.742Z,-2.13
2022-12-18T10:09:35.625Z,-2.02
2022-12-18T10:12:24.725Z,-1.96
2022-12-18T10:15:21.844Z,-1.83
2022-12-18T10:17:57.281Z,-1.72
2022-12-18T10:20:33.767Z,-1.60
2022-12-18T10:23:14.127Z,-1.54
2022-12-18T10:25:48.438Z,-1.45
2022-12-18T10:28:17.433Z,-1.44
2022-12-18T10:30:44.368Z,-1.36
2022-12-18T10:33:18.433Z,-1.27
2022-12-18T10:35:47.936Z,-1.18
2022-12-18T10:38:17.465Z,-1.02
2022-12-18T10:41:05.497Z,-0.98
2022-12-18T10:43:37.465Z,-0.99
2022-12-18T10:46:10.028Z,-0.93
2022-12-18T10:48:54.460Z,-0.88
2022-12-18T10:51:22.687Z,-0.90
2022-12-18T10:54:13.613Z,-0.89
2022-12-18T10:56:40.156Z,-0.84
2022-12-18T10:59:09.781Z,-0.77
2022-12-18T11:01:59.075Z,-0.65
2022-12-18T11:04:28.380Z,-0.57
2022-12-18T11:07:06.738Z,-0.55
2022-12-18T11:09:35.080Z,-0.51
2022-12-18T11:12:23.163Z,-0.52
2022-12-18T11:14:52.400Z,-0.49
2022-12-18T11:17:26.465Z,-0.42
2022-12-18T11:19:56.223Z,-0.40
2022-12-18T11:22:31.492Z,-0.35
2022-12-18T11:27:56.668Z,-0.24
2022-12-18T11:30:25.222Z,-0.23
2022-12-18T11:33:10.483Z,-0.15
2022-12-18T11:35:46.015Z,-0.12
2022-12-18T11:38:22.093Z,-0.15
2022-12-18T11:40:58.510Z,-0.16
2022-12-18T11:43:28.823Z,-0.08
2022-12-18T11:46:20.045Z,-0.10
2022-12-18T11:49:08.631Z,-0.11
2022-12-18T11:51:49.742Z,-0.11
2022-12-18T11:54:17.305Z,-0.12
2022-12-18T11:57:06.758Z,-0.12
2022-12-18T11:59:51.964Z,-0.13
2022-12-18T12:03:09.613Z,-0.13
2022-12-18T12:06:15.583Z,-0.13
2022-12-18T12:09:12.257Z,-0.07
2022-12-18T12:11:50.942Z,-0.11
2022-12-18T12:14:47.877Z,-0.04
2022-12-18T12:17:20.286Z,-0.07
2022-12-18T12:19:52.897Z,-0.01
2022-12-18T12:22:31.644Z,-0.04
2022-12-18T12:25:28.178Z,-0.07
2022-12-18T12:28:14.445Z,-0.07
2022-12-18T12:30:59.181Z,-0.09
2022-12-18T12:34:00.804Z,-0.08
2022-12-18T12:36:45.608Z,-0.07
2022-12-18T12:39:17.333Z,-0.10
2022-12-18T12:42:05.912Z,-0.07
2022-12-18T12:44:40.314Z,-0.09
2022-12-18T12:47:22.714Z,-0.08
2022-12-18T12:49:51.675Z,-0.11
2022-12-18T12:52:31.872Z,-0.12
2022-12-18T12:55:00.251Z,-0.14
2022-12-18T12:57:40.941Z,-0.14
2022-12-18T13:00:13.953Z,-0.14
2022-12-18T13:02:51.865Z,-0.13
2022-12-18T13:05:35.443Z,-0.19
2022-12-18T13:08:07.232Z,-0.21
2022-12-18T13:10:42.022Z,-0.19
2022-12-18T13:13:13.053Z,-0.19
2022-12-18T13:15:47.026Z,-0.04
2022-12-18T13:18:18.857Z,-0.07
2022-12-18T13:21:05.144Z,-0.09
2022-12-18T13:23:41.255Z,-0.13
2022-12-18T13:26:09.014Z,-0.17
2022-12-18T13:28:47.739Z,-0.16
2022-12-18T13:31:35.504Z,-0.16
2022-12-18T13:34:27.560Z,-0.18
2022-12-18T13:36:56.578Z,-0.16
2022-12-18T13:39:43.325Z,-0.16
2022-12-18T13:42:49.381Z,-0.17
2022-12-18T13:45:53.321Z,-0.19
2022-12-18T13:48:23.672Z,-0.21
2022-12-18T13:50:54.762Z,-0.22
2022-12-18T13:53:25.873Z,-0.23
2022-12-18T13:55:52.763Z,-0.22
2022-12-18T13:58:19.829Z,-0.24
2022-12-18T14:00:46.476Z,-0.24
2022-12-18T14:03:28.605Z,-0.27
2022-12-18T14:06:01.172Z,-0.25
2022-12-18T14:08:34.895Z,-0.25
2022-12-18T14:11:02.564Z,-0.26
2022-12-18T14:13:34.889Z,-0.26
2022-12-18T14:16:04.363Z,-0.29
2022-12-18T14:18:56.347Z,-0.30
2022-12-18T14:21:30.262Z,-0.29
2022-12-18T14:24:20.035Z,-0.32
2022-12-18T14:26:48.149Z,-0.31
2022-12-18T14:29:28.468Z,-0.31
2022-12-18T14:32:13.376Z,-0.33
2022-12-18T14:34:44.336Z,-0.34
2022-12-18T14:37:14.148Z,-0.36
2022-12-18T14:39:41.058Z,-0.33
2022-12-18T14:42:12.314Z,-0.34
2022-12-18T14:44:50.562Z,-0.38
2022-12-18T14:47:25.477Z,-0.39
2022-12-18T14:49:51.965Z,-0.36
2022-12-18T14:52:30.261Z,-0.38
2022-12-18T14:54:56.739Z,-0.39
2022-12-18T14:57:25.891Z,-0.39
2022-12-18T14:59:52.515Z,-0.41
2022-12-18T15:02:29.690Z,-0.43
2022-12-18T15:05:13.876Z,-0.43
2022-12-18T15:07:51.830Z,-0.41
2022-12-18T15:10:24.283Z,-0.40
2022-12-18T15:12:56.947Z,-0.39
2022-12-18T15:15:38.973Z,-0.38
2022-12-18T15:18:08.609Z,-0.40
2022-12-18T15:21:03.035Z,-0.43
2022-12-18T15:23:39.627Z,-0.47
2022-12-18T15:26:10.042Z,-0.49
2022-12-18T15:28:47.704Z,-0.44
2022-12-18T15:31:14.196Z,-0.41
2022-12-18T15:34:01.689Z,-0.45
2022-12-18T15:36:28.104Z,-0.47
2022-12-18T15:39:04.863Z,-0.47
2022-12-18T15:41:35.209Z,-0.48
2022-12-18T15:44:03.285Z,-0.49
2022-12-18T15:46:31.787Z,-0.50
2022-12-18T15:49:02.132Z,-0.54
2022-12-18T15:51:35.433Z,-0.51
2022-12-18T15:54:07.291Z,-0.50
2022-12-18T15:56:52.439Z,-0.49
2022-12-18T15:59:21.007Z,-0.54
2022-12-18T16:01:50.293Z,-0.57
2022-12-18T16:04:21.427Z,-0.55
2022-12-18T16:07:13.763Z,-0.57
2022-12-18T16:09:34.948Z,-0.59
2022-12-18T16:12:01.589Z,-0.57
2022-12-18T16:14:30.843Z,-0.58
2022-12-18T16:17:03.392Z,-0.56
2022-12-18T16:19:30.478Z,-0.57
2022-12-18T16:21:58.849Z,-0.59
2022-12-18T16:24:30.753Z,-0.64
2022-12-18T16:27:00.194Z,-0.65
2022-12-18T16:29:28.710Z,-0.65
2022-12-18T16:31:56.469Z,-0.64
2022-12-18T16:34:41.368Z,-0.67
2022-12-18T16:37:09.367Z,-0.68
2022-12-18T16:39:37.322Z,-0.70
2022-12-18T16:42:09.719Z,-0.71
2022-12-18T16:44:36.588Z,-0.72
2022-12-18T16:47:04.323Z,-0.75
2022-12-18T16:49:31.362Z,-0.75
2022-12-18T16:51:58.099Z,-0.76
2022-12-18T16:54:25.083Z,-0.77
2022-12-18T16:56:52.555Z,-0.79
2022-12-18T16:59:19.926Z,-0.79
2022-12-18T17:01:46.880Z,-0.81
2022-12-18T17:04:13.486Z,-0.82
2022-12-18T17:06:43.099Z,-0.83
2022-12-18T17:09:15.244Z,-0.84
2022-12-18T17:11:41.756Z,-0.82
2022-12-18T17:14:15.704Z,-0.82
2022-12-18T17:16:42.611Z,-0.84
2022-12-18T17:19:13.706Z,-0.86
2022-12-18T17:21:44.992Z,-0.84
2022-12-18T17:24:11.611Z,-0.84
2022-12-18T17:26:38.120Z,-0.81
2022-12-18T17:29:04.736Z,-0.84
2022-12-18T17:31:32.415Z,-0.85
2022-12-18T17:34:01.040Z,-0.86
2022-12-18T17:36:32.187Z,-0.86
2022-12-18T17:39:00.720Z,-0.88
2022-12-18T17:41:29.160Z,-0.89
2022-12-18T17:44:01.309Z,-0.89
2022-12-18T17:46:30.635Z,-0.89
2022-12-18T17:49:01.223Z,-0.90
2022-12-18T17:51:28.471Z,-0.92
2022-12-18T17:53:55.106Z,-0.91
2022-12-18T17:56:23.532Z,-0.94
2022-12-18T17:58:50.454Z,-0.94
2022-12-18T18:01:20.287Z,-0.95
2022-12-18T18:03:48.352Z,-0.95
2022-12-18T18:06:18.076Z,-0.95
2022-12-18T18:08:44.560Z,-0.95
2022-12-18T18:11:35.091Z,-0.96
2022-12-18T18:14:02.050Z,-0.95
2022-12-18T18:16:37.352Z,-0.96
2022-12-18T18:19:06.494Z,-0.96
2022-12-18T18:21:34.308Z,-0.96
2022-12-18T18:24:04.992Z,-0.98
2022-12-18T18:26:32.627Z,-0.97
2022-12-18T18:29:00.631Z,-0.97
2022-12-18T18:31:31.271Z,-0.96
2022-12-18T18:33:58.011Z,-0.97
2022-12-18T18:36:24.590Z,-0.97
2022-12-18T18:38:51.987Z,-0.97
2022-12-18T18:41:19.426Z,-0.99
2022-12-18T18:43:46.323Z,-0.98
2022-12-18T18:46:14.844Z,-0.98
2022-12-18T18:48:42.373Z,-0.98
2022-12-18T18:51:20.644Z,-0.99
2022-12-18T18:53:50.249Z,-0.99
2022-12-18T18:56:56.576Z,-0.98
2022-12-18T18:59:05.887Z,-0.96
2022-12-18T19:01:32.982Z,-0.99
2022-12-18T19:04:03.726Z,-0.96
2022-12-18T19:06:30.751Z,-0.96
2022-12-18T19:08:58.639Z,-0.95
2022-12-18T19:11:44.241Z,-0.94
2022-12-18T19:14:12.471Z,-0.94
2022-12-18T19:16:40.212Z,-0.93
2022-12-18T19:19:07.506Z,-0.93
2022-12-18T19:21:34.881Z,-0.92
2022-12-18T19:24:02.771Z,-0.90
2022-12-18T19:26:30.238Z,-0.91
2022-12-18T19:29:05.979Z,-0.88
2022-12-18T19:31:35.912Z,-0.89
2022-12-18T19:34:04.863Z,-0.90
2022-12-18T19:36:33.124Z,-0.90
2022-12-18T19:39:01.268Z,-0.88
2022-12-18T19:41:31.076Z,-0.88
2022-12-18T19:43:59.672Z,-0.88
2022-12-18T19:46:26.251Z,-0.87
2022-12-18T19:48:53.606Z,-0.82
2022-12-18T19:51:25.493Z,-0.82
2022-12-18T19:53:58.115Z,-0.83
2022-12-18T19:56:27.625Z,-0.83
2022-12-18T19:58:54.888Z,-0.81
2022-12-18T20:01:23.302Z,-0.81
2022-12-18T20:03:52.657Z,-0.80
2022-12-18T20:06:29.869Z,-0.81
2022-12-18T20:09:00.497Z,-0.80
2022-12-18T20:11:29.081Z,-0.79
2022-12-18T20:13:55.874Z,-0.79
2022-12-18T20:16:22.375Z,-0.79
2022-12-18T20:18:49.409Z,-0.77
2022-12-18T20:21:16.119Z,-0.76
2022-12-18T20:23:43.494Z,-0.73
2022-12-18T20:26:10.593Z,-0.72
2022-12-18T20:28:37.044Z,-0.73
2022-12-18T20:31:08.212Z,-0.73
2022-12-18T20:33:37.364Z,-0.74
2022-12-18T20:36:06.413Z,-0.74
2022-12-18T20:38:35.109Z,-0.73
2022-12-18T20:41:06.447Z,-0.76
2022-12-18T20:43:32.978Z,-0.76
2022-12-18T20:46:07.993Z,-0.75
2022-12-18T20:48:34.519Z,-0.74
2022-12-18T20:51:03.813Z,-0.73
2022-12-18T20:53:30.889Z,-0.72
2022-12-18T20:55:57.425Z,-0.69
2022-12-18T20:58:24.410Z,-0.69
2022-12-18T21:00:51.656Z,-0.68
2022-12-18T21:03:18.891Z,-0.68
2022-12-18T21:05:45.428Z,-0.69
2022-12-18T21:08:11.972Z,-0.67
2022-12-18T21:10:42.348Z,-0.64
2022-12-18T21:13:09.548Z,-0.63
2022-12-18T21:15:37.787Z,-0.59
2022-12-18T21:18:04.461Z,-0.56
2022-12-18T21:20:31.306Z,-0.53
2022-12-18T21:23:08.931Z,-0.51
2022-12-18T21:25:43.595Z,-0.50
2022-12-18T21:28:10.036Z,-0.49
2022-12-18T21:30:36.584Z,-0.48
2022-12-18T21:33:03.250Z,-0.48
2022-12-18T21:35:32.148Z,-0.47
2022-12-18T21:37:58.854Z,-0.46
2022-12-18T21:40:25.417Z,-0.45
2022-12-18T21:43:11.243Z,-0.45
2022-12-18T21:45:42.587Z,-0.46
2022-12-18T21:48:09.062Z,-0.45
2022-12-18T21:50:35.476Z,-0.44
2022-12-18T21:53:01.861Z,-0.46
2022-12-18T21:55:28.400Z,-0.44
2022-12-18T21:57:54.997Z,-0.43
2022-12-18T22:00:21.723Z,-0.44
2022-12-18T22:03:17.723Z,-0.44
2022-12-18T22:05:35.187Z,-0.43
2022-12-18T22:08:01.753Z,-0.43
2022-12-18T22:10:28.596Z,-0.44
2022-12-18T22:13:13.794Z,-0.43
2022-12-18T22:15:52.465Z,-0.43
2022-12-18T22:18:21.197Z,-0.42
2022-12-18T22:20:47.691Z,-0.41
2022-12-18T22:23:14.292Z,-0.42
2022-12-18T22:25:42.645Z,-0.40
2022-12-18T22:28:27.609Z,-0.41
2022-12-18T22:30:54.931Z,-0.40
2022-12-18T22:33:26.226Z,-0.40
2022-12-18T22:35:52.672Z,-0.38
2022-12-18T22:38:19.136Z,-0.38
2022-12-18T22:40:45.602Z,-0.34
2022-12-18T22:43:12.069Z,-0.34
2022-12-18T22:45:38.897Z,-0.32
2022-12-18T22:48:06.077Z,-0.31
2022-12-18T22:50:33.783Z,-0.32
2022-12-18T22:53:00.274Z,-0.31
2022-12-18T22:55:26.728Z,-0.29
2022-12-18T22:57:53.284Z,-0.27
2022-12-18T23:00:23.899Z,-0.24
2022-12-18T23:02:55.787Z,-0.23
2022-12-18T23:05:26.263Z,-0.24
2022-12-18T23:07:52.714Z,-0.25
2022-12-18T23:10:19.219Z,-0.26
2022-12-18T23:12:45.699Z,-0.23
2022-12-18T23:15:12.225Z,-0.18
2022-12-18T23:17:39.732Z,-0.18
2022-12-18T23:20:06.594Z,-0.16
2022-12-18T23:22:32.995Z,-0.15
2022-12-18T23:24:59.400Z,-0.13
2022-12-18T23:27:25.804Z,-0.15
2022-12-18T23:29:52.223Z,-0.16
2022-12-18T23:32:20.132Z,-0.13
2022-12-18T23:34:46.605Z,-0.12
2022-12-18T23:37:13.082Z,-0.12
2022-12-18T23:39:42.426Z,-0.13
2022-12-18T23:42:08.858Z,-0.07
2022-12-18T23:44:36.166Z,-0.10
2022-12-18T23:47:02.840Z,-0.06
2022-12-18T23:49:29.397Z,-0.04
2022-12-18T23:51:56.029Z,-0.03
2022-12-18T23:54:32.669Z,-0.04
2022-12-18T23:56:59.860Z,-0.04
2022-12-18T23:59:26.295Z,0.00
